Latest Weather Observations for Hartz Mountains

IDT60801

Issued at 5:35 am EDT Monday 24 November 2014 (issued every 30 minutes, with the page automatically refreshed every 10 minutes)

About weather observations | Map of weather stations | Latest weather observations for TAS | Other Formats
Station Details ID: 094191 Name: HARTZ MOUNTAIN (KEOGHS PIMPLE) Lat: -43.20 Lon: 146.77 Height: 831.0 m
Data from the previous 72 hours. | See also: Recent months at Hartz Mountains
Date/Time
EDT
Temp
°C
App
Temp
°C
Dew
Point
Rel
Hum
%
Delta-T
°C
Wind Press
QNH
hPa
Press
MSL
hPa
Rain
since 9 am
mm
Dir
 
Spd
km/h
Gust
km/h
Spd
kts
Gust
kts
24/05:30am 6.8 1.5 3.1 77 1.6 WNW 20 28 11 15 - - 0.2
24/05:00am 6.8 0.0 3.2 78 1.6 W 28 37 15 20 - - 0.2
24/04:30am 6.6 0.2 3.4 80 1.4 WNW 26 32 14 17 - - 0.2
24/04:00am 6.6 1.0 3.4 80 1.4 WNW 22 26 12 14 - - 0.2
24/03:30am 6.3 1.7 3.5 82 1.2 W 17 20 9 11 - - 0.2
24/03:00am 6.5 1.5 3.5 81 1.3 NW 19 20 10 11 - - 0.2
24/02:30am 6.7 2.4 3.5 80 1.4 NW 15 17 8 9 - - 0.2
24/02:00am 7.1 2.1 3.5 78 1.6 NW 19 22 10 12 - - 0.2
24/01:30am 7.2 2.5 3.4 77 1.7 NNW 17 20 9 11 - - 0.2
24/01:00am 7.5 2.5 3.6 76 1.8 NW 19 24 10 13 - - 0.2
24/12:30am 7.2 2.5 3.3 76 1.7 NW 17 22 9 12 - - 0.2
24/12:00am 7.6 2.0 3.3 74 1.9 W 22 28 12 15 - - 0.2
 
Date/Time
EDT
Temp
°C
App
Temp
°C
Dew
Point
Rel
Hum
%
Delta-T
°C
Wind Press
QNH
hPa
Press
MSL
hPa
Rain
since 9 am
mm
Dir
 
Spd
km/h
Gust
km/h
Spd
kts
Gust
kts
23/11:30pm 8.1 0.0 3.4 72 2.1 W 35 46 19 25 - - 0.2
23/11:00pm 7.6 2.0 3.6 76 1.8 W 22 33 12 18 - - 0.2
23/10:30pm 7.9 3.7 3.8 75 1.9 WNW 15 22 8 12 - - 0.2
23/10:00pm 8.1 3.9 3.6 73 2.0 W 15 32 8 17 - - 0.2
23/09:30pm 8.4 0.1 4.0 74 2.0 W 37 56 20 30 - - 0.2
23/09:06pm 8.5 0.6 4.3 75 1.9 W 35 54 19 29 - - 0.2
23/09:00pm 8.7 0.4 4.1 73 2.1 W 37 50 20 27 - - 0.2
23/08:40pm 9.1 0.4 4.1 71 2.3 W 39 57 21 31 - - 0.2
23/08:30pm 9.2 0.6 4.4 72 2.2 W 39 56 21 30 - - 0.2
23/08:01pm 10.0 3.4 4.4 68 2.6 W 28 48 15 26 - - 0.2
23/08:00pm 10.1 3.6 4.7 69 2.5 W 28 39 15 21 - - 0.2
23/07:30pm 11.9 2.3 4.2 59 3.6 W 44 63 24 34 - - 0.2
23/07:12pm 11.8 2.1 3.8 58 3.7 W 44 63 24 34 - - 0.2
23/07:00pm 13.1 2.8 4.8 57 4.0 W 48 63 26 34 - - 0.2
23/06:50pm 13.3 4.0 5.2 58 4.0 W 43 61 23 33 - - 0.2
23/06:30pm 14.2 4.8 4.5 52 4.7 W 43 57 23 31 - - 0.2
23/06:00pm 15.1 6.9 4.5 49 5.2 W 37 46 20 25 - - 0.2
23/05:30pm 16.0 9.6 5.0 48 5.5 W 28 44 15 24 - - 0.2
23/05:00pm 16.9 10.9 5.5 47 5.7 W 26 37 14 20 - - 0.2
23/04:32pm 16.5 9.2 5.5 48 5.5 WNW 33 52 18 28 - - 0.2
23/04:30pm 16.5 8.7 4.9 46 5.8 WNW 35 52 19 28 - - 0.2
23/04:00pm 17.1 10.5 4.4 43 6.3 WNW 28 50 15 27 - - 0.2
23/03:30pm 18.2 12.2 7.0 48 5.9 WNW 28 44 15 24 - - 0.2
23/03:00pm 16.8 9.6 6.0 49 5.5 NW 33 46 18 25 - - 0.2
23/02:30pm 16.6 10.1 6.7 52 5.1 NW 30 48 16 26 - - 0.2
23/02:26pm 16.0 9.5 6.4 53 4.9 NNW 30 48 16 26 - - 0.2
23/02:00pm 14.5 8.9 7.1 61 3.8 W 26 46 14 25 - - 0.2
23/01:56pm 14.0 7.7 5.6 57 4.2 W 28 46 15 25 - - 0.2
23/01:30pm 15.1 9.4 8.3 64 3.6 W 28 41 15 22 - - 0.2
23/01:00pm 14.2 7.8 7.0 62 3.7 W 30 44 16 24 - - 0.2
23/12:30pm 12.9 6.4 6.3 64 3.3 W 30 41 16 22 - - 0.2
23/12:00pm 12.8 5.9 6.6 66 3.1 W 32 50 17 27 - - 0.2
23/11:37am 13.3 6.6 5.7 60 3.8 WNW 30 48 16 26 - - 0.2
23/11:30am 13.2 6.1 6.3 63 3.4 WNW 33 48 18 26 - - 0.2
23/11:00am 11.5 3.5 5.8 68 2.8 W 37 57 20 31 - - 0.0
23/10:30am 10.3 1.4 5.1 70 2.5 W 41 59 22 32 - - 0.0
23/10:00am 9.9 2.5 5.1 72 2.3 W 33 56 18 30 - - 0.0
23/09:30am 9.2 0.6 4.6 73 2.1 W 39 61 21 33 - - 0.0
23/09:00am 8.4 0.6 4.8 78 1.7 W 35 54 19 29 - - 1.0
23/08:30am 8.3 1.0 5.6 83 1.3 WNW 33 52 18 28 - - 1.0
23/08:00am 7.7 -1.7 5.2 84 1.2 W 44 72 24 39 - - 1.0
23/07:30am 7.3 -4.7 4.9 85 1.1 W 57 80 31 43 - - 1.0
23/07:00am 7.1 -3.2 4.6 84 1.1 W 48 76 26 41 - - 1.0
23/06:30am 6.9 -4.4 5.4 90 0.7 W 54 74 29 40 - - 1.0
23/06:00am 7.1 -3.4 5.6 90 0.7 W 50 70 27 38 - - 1.0
23/05:55am 7.1 -3.8 5.7 91 0.7 W 52 70 28 38 - - 1.0
23/05:51am 7.2 -4.4 5.7 90 0.7 W 56 70 30 38 - - 1.0
23/05:30am 7.3 -0.6 6.2 93 0.5 WNW 37 56 20 30 - - 1.0
23/05:07am 7.6 1.5 6.4 92 0.6 W 28 50 15 27 - - 1.0
23/05:00am 7.7 3.7 6.6 93 0.5 W 17 28 9 15 - - 1.0
23/04:34am 8.0 1.9 6.8 92 0.6 W 28 52 15 28 - - 1.0
23/04:30am 8.1 2.8 6.9 92 0.6 W 24 43 13 23 - - 1.0
23/04:06am 8.4 2.5 7.6 95 0.4 W 28 50 15 27 - - 1.0
23/04:00am 8.5 3.8 7.7 95 0.4 W 22 39 12 21 - - 1.0
23/03:31am 8.6 2.8 7.8 95 0.4 WNW 28 50 15 27 - - 1.0
23/03:30am 8.7 3.3 7.9 95 0.4 WNW 26 50 14 27 - - 1.0
23/03:00am 8.8 1.7 8.2 96 0.3 W 35 50 19 27 - - 1.0
23/02:44am 8.8 1.7 8.2 96 0.3 W 35 54 19 29 - - 1.0
23/02:30am 8.8 1.7 8.2 96 0.3 W 35 52 19 28 - - 1.0
23/02:29am 8.8 2.1 8.2 96 0.3 W 33 52 18 28 - - 1.0
23/02:00am 8.9 2.2 8.3 96 0.3 W 33 50 18 27 - - 1.0
23/01:30am 9.2 3.1 8.3 94 0.5 W 30 48 16 26 - - 1.0
23/01:23am 9.2 3.1 8.3 94 0.5 W 30 48 16 26 - - 1.0
23/01:00am 9.4 4.1 8.3 93 0.6 W 26 43 14 23 - - 1.0
23/12:32am 9.4 3.7 8.3 93 0.6 W 28 48 15 26 - - 1.0
23/12:30am 9.5 4.2 8.3 92 0.6 W 26 41 14 22 - - 1.0
23/12:17am 9.4 3.7 8.3 93 0.6 W 28 48 15 26 - - 1.0
23/12:00am 9.4 4.4 8.2 92 0.6 W 24 44 13 24 - - 1.0
 
Date/Time
EDT
Temp
°C
App
Temp
°C
Dew
Point
Rel
Hum
%
Delta-T
°C
Wind Press
QNH
hPa
Press
MSL
hPa
Rain
since 9 am
mm
Dir
 
Spd
km/h
Gust
km/h
Spd
kts
Gust
kts
22/11:30pm 9.7 6.1 8.5 92 0.6 W 17 30 9 16 - - 1.0
22/11:00pm 9.7 5.2 8.5 92 0.6 WNW 22 33 12 18 - - 1.0
22/10:30pm 9.4 5.4 8.3 93 0.6 WNW 19 30 10 16 - - 1.0
22/10:00pm 9.5 5.0 8.4 93 0.6 WNW 22 35 12 19 - - 1.0
22/09:30pm 9.3 5.3 8.2 93 0.6 WNW 19 28 10 15 - - 1.0
22/09:00pm 9.5 5.0 8.4 93 0.6 WNW 22 35 12 19 - - 1.0
22/08:30pm 9.6 5.5 8.7 94 0.5 WNW 20 33 11 18 - - 1.0
22/08:00pm 9.7 6.2 8.9 95 0.4 WNW 17 32 9 17 - - 1.0
22/07:30pm 9.8 5.0 9.0 95 0.4 WNW 24 35 13 19 - - 1.0
22/07:00pm 10.0 3.5 8.9 93 0.6 WNW 33 50 18 27 - - 0.8
22/06:40pm 10.2 3.7 8.8 91 0.7 WNW 33 52 18 28 - - 0.8
22/06:30pm 10.2 3.9 8.8 91 0.7 WNW 32 46 17 25 - - 0.8
22/06:00pm 10.3 4.0 9.1 92 0.6 WNW 32 46 17 25 - - 0.8
22/05:30pm 10.6 7.0 9.7 94 0.5 NW 19 28 10 15 - - 0.6
22/05:00pm 10.5 6.8 9.4 93 0.6 WNW 19 28 10 15 - - 0.6
22/04:30pm 10.8 6.1 9.2 90 0.8 WNW 24 39 13 21 - - 0.2
22/04:00pm 11.7 3.9 8.4 80 1.7 WNW 39 61 21 33 - - 0.0
22/03:51pm 11.8 4.0 8.1 78 1.9 WNW 39 61 21 33 - - 0.0
22/03:30pm 12.2 5.2 8.5 78 1.9 WNW 35 50 19 27 - - 0.0
22/03:00pm 13.4 6.9 8.3 71 2.7 WNW 32 54 17 29 - - 0.0
22/02:31pm 12.2 6.4 7.9 75 2.2 WNW 28 56 15 30 - - 0.0
22/02:30pm 12.2 6.8 8.1 76 2.1 WNW 26 41 14 22 - - 0.0
22/02:00pm 12.0 3.8 8.1 77 2.0 NW 41 59 22 32 - - 0.0
22/01:30pm 11.0 5.3 8.2 83 1.4 WNW 28 48 15 26 - - 0.0
22/01:00pm 10.3 3.8 8.1 86 1.1 WNW 32 57 17 31 - - 0.0
22/12:30pm 9.8 1.6 8.1 89 0.9 WNW 41 63 22 34 - - 0.0
22/12:22pm 9.8 2.3 8.1 89 0.9 WNW 37 57 20 31 - - 0.0
22/12:16pm 9.7 2.6 8.0 89 0.9 WNW 35 52 19 28 - - 0.0
22/12:08pm 9.7 -1.6 8.0 89 0.9 WNW 57 76 31 41 - - 0.0
22/12:00pm 9.5 2.4 7.9 90 0.8 WNW 35 59 19 32 - - 0.0
22/11:31am 9.2 2.6 7.8 91 0.7 WNW 32 54 17 29 - - 0.0
22/11:30am 9.3 3.1 7.9 91 0.7 WNW 30 46 16 25 - - 0.0
22/11:10am 9.8 3.8 7.2 84 1.3 NW 28 46 15 25 - - 0.0
22/11:00am 9.7 4.4 7.0 83 1.3 NW 24 39 13 21 - - 0.0
22/10:30am 9.7 2.9 7.0 83 1.3 WNW 32 52 17 28 - - 0.0
22/10:18am 9.7 3.7 7.0 83 1.3 WNW 28 46 15 25 - - 0.0
22/10:00am 9.6 3.1 6.5 81 1.5 WNW 30 41 16 22 - - 0.0
22/09:30am 9.6 4.7 7.0 84 1.3 WNW 22 35 12 19 - - 0.0
22/09:00am 7.3 2.7 5.6 89 0.8 WNW 19 30 10 16 - - 1.4
22/08:30am 6.6 3.0 5.2 91 0.6 NW 13 22 7 12 - - 1.4
22/08:00am 6.0 2.6 4.2 88 0.8 NW 11 17 6 9 - - 1.4
22/07:30am 6.2 0.3 3.9 85 1.0 WNW 24 33 13 18 - - 1.2
22/07:00am 7.0 1.2 2.1 71 2.1 WNW 22 33 12 18 - - 1.2
22/06:30am 7.3 1.4 1.6 67 2.4 WNW 22 30 12 16 - - 1.2
22/06:00am 7.5 0.3 0.9 63 2.8 WNW 28 41 15 22 - - 1.2
22/05:30am 7.5 0.3 0.7 62 2.9 WNW 28 41 15 22 - - 1.2
22/05:05am 7.5 -1.6 -0.7 56 3.3 WNW 37 56 20 30 - - 1.2
22/05:00am 7.4 -2.0 -0.1 59 3.1 WNW 39 56 21 30 - - 1.2
22/04:30am 7.2 -1.5 -0.3 59 3.1 WNW 35 48 19 26 - - 1.2
22/04:00am 6.9 -2.9 -0.3 60 2.9 NW 41 54 22 29 - - 1.2
22/03:38am 7.0 -2.0 0.0 61 2.9 WNW 37 56 20 30 - - 1.2
22/03:30am 6.8 -2.3 -0.6 59 3.0 WNW 37 48 20 26 - - 1.2
22/03:00am 6.7 -2.7 0.2 63 2.7 WNW 39 61 21 33 - - 1.2
22/02:57am 6.4 -2.2 0.3 65 2.5 WNW 35 54 19 29 - - 1.2
22/02:30am 6.6 -1.5 1.3 69 2.2 WNW 33 46 18 25 - - 1.2
22/02:00am 6.0 -2.3 1.9 75 1.7 NW 35 46 19 25 - - 1.2
22/01:30am 5.7 -1.8 1.4 74 1.8 NW 30 41 16 22 - - 1.2
22/01:00am 5.0 -0.4 1.5 78 1.5 WNW 19 24 10 13 - - 1.2
22/12:30am 5.2 -0.4 1.1 75 1.7 WNW 20 26 11 14 - - 1.2
22/12:00am 5.8 0.3 1.7 75 1.7 NW 20 26 11 14 - - 1.2
 
Date/Time
EDT
Temp
°C
App
Temp
°C
Dew
Point
Rel
Hum
%
Delta-T
°C
Wind Press
QNH
hPa
Press
MSL
hPa
Rain
since 9 am
mm
Dir
 
Spd
km/h
Gust
km/h
Spd
kts
Gust
kts
21/11:30pm 5.6 1.4 1.7 76 1.6 WNW 13 19 7 10 - - 1.2
21/11:00pm 5.7 -0.5 2.2 78 1.5 NW 24 35 13 19 - - 1.2
21/10:30pm 5.7 0.6 3.2 84 1.1 NW 19 22 10 12 - - 1.2
21/10:00pm 5.6 0.3 3.1 84 1.1 NW 20 24 11 13 - - 1.2
21/09:30pm 5.3 -0.4 3.0 85 1.0 NW 22 26 12 14 - - 1.2
21/09:00pm 5.6 0.3 2.9 83 1.2 NW 20 28 11 15 - - 1.2
21/08:30pm 5.5 -0.1 3.2 85 1.0 WNW 22 30 12 16 - - 1.2
21/08:00pm 6.4 0.3 3.0 79 1.5 NW 24 33 13 18 - - 1.2
21/07:30pm 8.5 3.7 4.7 77 1.8 W 19 26 10 14 - - 1.2
21/07:00pm 9.4 4.4 4.8 73 2.2 WNW 20 32 11 17 - - 1.2
21/06:30pm 8.9 3.8 4.1 72 2.2 WNW 20 32 11 17 - - 1.2
21/06:00pm 9.5 4.9 3.5 66 2.7 W 17 33 9 18 - - 1.2
21/05:30pm 10.7 6.1 5.7 71 2.4 WNW 19 26 10 14 - - 1.2
21/05:00pm 9.6 3.8 4.2 69 2.5 W 24 33 13 18 - - 1.2
21/04:47pm 10.0 3.7 5.6 74 2.1 WNW 28 46 15 25 - - 1.2
21/04:30pm 9.4 3.6 4.4 71 2.3 W 24 41 13 22 - - 1.2
21/04:00pm 7.9 2.1 4.3 78 1.7 W 24 43 13 23 - - 1.2
21/03:30pm 9.4 5.2 8.2 92 0.6 W 20 32 11 17 - - 1.2
21/03:00pm 6.6 0.7 4.1 84 1.1 WSW 24 35 13 19 - - 1.2
21/02:30pm 7.3 1.6 4.9 85 1.1 WSW 24 35 13 19 - - 1.2
21/02:00pm 6.5 0.8 5.0 90 0.7 WSW 24 41 13 22 - - 1.2
21/01:30pm 6.5 1.1 4.3 86 1.0 WSW 22 32 12 17 - - 1.2
21/01:00pm 7.5 2.1 6.4 93 0.5 WSW 24 35 13 19 - - 1.2
21/12:30pm 5.7 0.0 4.7 93 0.5 WSW 24 33 13 18 - - 1.2
21/12:00pm 5.9 -0.5 5.0 94 0.4 WSW 28 39 15 21 - - 1.2
21/11:30am 6.3 -0.7 5.9 97 0.2 WSW 32 44 17 24 - - 1.2
21/11:00am 5.5 -0.6 4.9 96 0.3 SW 26 35 14 19 - - 1.0
21/10:30am 6.0 0.4 5.4 96 0.3 WSW 24 35 13 19 - - 0.6
21/10:00am 6.0 0.8 5.4 96 0.3 SW 22 39 12 21 - - 0.2
21/09:30am 5.8 0.1 5.1 95 0.3 SSW 24 37 13 20 - - 0.0
21/09:00am 6.3 1.1 5.7 96 0.3 SW 22 35 12 19 - - 5.0
21/08:30am 6.3 1.1 5.7 96 0.3 SW 22 33 12 18 - - 5.0
21/08:00am 6.4 0.5 6.0 97 0.2 SW 26 33 14 18 - - 5.0
21/07:30am 6.8 2.2 6.5 98 0.1 WSW 20 32 11 17 - - 4.8
21/07:00am 7.2 2.9 6.9 98 0.1 WSW 19 26 10 14 - - 4.8
21/06:30am 7.1 1.8 6.8 98 0.1 WSW 24 32 13 17 - - 4.8
21/06:00am 7.3 2.0 7.0 98 0.1 WSW 24 33 13 18 - - 4.8

Other Formats:

Comma delimited format used in spreadsheet applications
http://www.bom.gov.au/fwo/IDT60801/IDT60801.94977.axf

JavaScript Object Notation format (JSON) in row-major order
http://www.bom.gov.au/fwo/IDT60801/IDT60801.94977.json